Latest Weather Observations for Troughton Island

IDW60801

Issued at 10:33 am WST Saturday 27 August 2016 (issued every 30 minutes, with the page automatically refreshed every 10 minutes)

About weather observations | Map of weather stations | Latest weather observations for WA | Other Formats
Station Details ID: 001007 Name: TROUGHTON ISLAND Lat: -13.75 Lon: 126.15 Height: 6.0 m
Data from the previous 72 hours. | See also: Recent months at Troughton Island
Date/Time
WST
Temp
°C
App
Temp
°C
Dew
Point
°C
Rel
Hum
%
Delta-T
°C
Wind Press
QNH
hPa
Press
MSL
hPa
Rain since
9am
mm
Dir  Spd
km/h
Gust
km/h
Spd
kts
Gust
kts
27/10:30am 29.2 30.2 22.2 66 4.7 ESE 20 24 11 13 1015.7 1015.6 0.0
27/10:00am 29.1 30.3 22.1 66 4.7 ESE 19 22 10 12 1016.0 1015.9 0.0
27/09:30am 28.8 30.0 22.1 67 4.5 ESE 19 22 10 12 1016.1 1016.0 0.0
27/09:00am 28.4 30.0 22.2 69 4.2 ESE 17 20 9 11 1016.2 1016.1 0.0
27/08:30am 27.9 30.0 22.4 72 3.7 E 15 19 8 10 1016.2 1016.1 0.0
27/08:00am 27.9 30.2 22.8 74 3.5 E 15 19 8 10 1015.9 1015.8 0.0
27/07:30am 27.2 29.4 22.6 76 3.1 ESE 15 19 8 10 1015.6 1015.5 0.0
27/07:00am 26.7 29.0 22.8 79 2.6 E 15 19 8 10 1015.4 1015.3 0.0
27/06:30am 26.0 28.1 22.5 81 2.4 ESE 15 19 8 10 1015.0 1014.9 0.0
27/06:00am 25.7 27.6 22.8 84 2.0 ESE 17 19 9 10 1014.5 1014.4 0.0
27/05:30am 26.0 27.4 22.9 83 2.1 E 20 22 11 12 1014.2 1014.1 0.0
27/05:00am 26.1 27.3 23.2 84 2.0 E 22 28 12 15 1014.1 1014.0 0.0
27/04:30am 26.2 27.3 23.1 83 2.1 E 22 26 12 14 1013.9 1013.8 0.0
27/04:00am 26.0 27.6 22.9 83 2.1 ENE 19 20 10 11 1013.6 1013.5 0.0
27/03:30am 25.9 28.2 22.8 83 2.1 ENE 15 19 8 10 1013.6 1013.5 0.0
27/03:00am 25.9 27.6 22.4 81 2.4 ENE 17 20 9 11 1013.6 1013.5 0.0
27/02:30am 26.0 28.0 22.3 80 2.5 ENE 15 19 8 10 1013.6 1013.5 0.0
27/02:00am 26.0 28.0 22.3 80 2.5 NE 15 19 8 10 1013.5 1013.4 0.0
27/01:30am 26.1 27.7 22.2 79 2.6 NE 17 20 9 11 1013.6 1013.5 0.0
27/01:00am 26.1 27.4 21.7 77 2.9 NE 17 20 9 11 1013.8 1013.7 0.0
27/12:30am 26.2 27.4 21.4 75 3.2 NE 17 19 9 10 1014.1 1014.0 0.0
27/12:00am 26.3 27.3 21.1 73 3.4 NE 17 20 9 11 1014.3 1014.2 0.0
 
Date/Time
WST
Temp
°C
App
Temp
°C
Dew
Point
°C
Rel
Hum
%
Delta-T
°C
Wind Press
QNH
hPa
Press
MSL
hPa
Rain since
9am
mm
Dir  Spd
km/h
Gust
km/h
Spd
kts
Gust
kts
26/11:30pm 26.5 26.7 20.6 70 3.9 ENE 20 26 11 14 1014.2 1014.1 0.0
26/11:00pm 26.6 26.5 20.7 70 3.9 ENE 22 26 12 14 1014.4 1014.3 0.0
26/10:30pm 26.6 26.1 20.7 70 3.9 ENE 24 28 13 15 1014.4 1014.3 0.0
26/10:00pm 26.6 26.2 20.9 71 3.8 ENE 24 28 13 15 1014.2 1014.1 0.0
26/09:30pm 26.6 26.2 20.9 71 3.8 ENE 24 30 13 16 1014.2 1014.1 0.0
26/09:00pm 26.7 26.2 20.8 70 3.9 ENE 24 30 13 16 1014.2 1014.1 0.0
26/08:30pm 26.7 25.3 20.5 69 4.1 ENE 28 35 15 19 1014.2 1014.1 0.0
26/08:00pm 26.8 25.1 20.6 69 4.1 ENE 30 35 16 19 1014.1 1014.0 0.0
26/07:30pm 26.7 25.0 20.5 69 4.1 ENE 30 35 16 19 1014.1 1014.0 0.0
26/07:00pm 26.6 24.6 20.7 70 3.9 ENE 32 39 17 21 1013.9 1013.8 0.0
26/06:30pm 26.4 24.3 20.5 70 3.9 ENE 32 39 17 21 1013.4 1013.3 0.0
26/06:00pm 26.5 24.6 21.3 73 3.4 ENE 33 39 18 21 1012.8 1012.7 0.0
26/05:30pm 26.6 24.5 20.9 71 3.8 ENE 33 41 18 22 1012.6 1012.5 0.0
26/05:00pm 26.9 24.3 20.7 69 4.1 ENE 35 41 19 22 1012.3 1012.2 0.0
26/04:30pm 27.4 25.1 21.2 69 4.1 ENE 35 43 19 23 1011.9 1011.8 0.0
26/04:00pm 27.7 24.4 20.0 63 5.0 ENE 37 43 20 23 1011.7 1011.6 0.0
26/03:30pm 27.9 24.9 19.9 61 5.2 ENE 35 43 19 23 1011.4 1011.3 0.0
26/03:00pm 28.3 24.9 19.0 57 6.0 ENE 35 43 19 23 1011.4 1011.3 0.0
26/02:30pm 28.6 25.4 19.5 58 5.9 ENE 35 44 19 24 1011.6 1011.5 0.0
26/02:00pm 28.8 25.4 18.9 55 6.4 ENE 35 44 19 24 1011.7 1011.6 0.0
26/01:30pm 29.3 26.2 19.6 56 6.3 NE 35 43 19 23 1011.9 1011.8 0.0
26/01:00pm 29.2 26.6 19.8 57 6.2 ENE 33 43 18 23 1012.3 1012.2 0.0
26/12:30pm 29.2 25.9 19.2 54 6.5 ENE 35 43 19 23 1012.8 1012.7 0.0
26/12:00pm 29.4 25.6 18.2 51 7.2 ENE 35 44 19 24 1013.1 1013.0 0.0
26/11:30am 29.8 27.4 17.3 47 7.9 ENE 26 30 14 16 1013.7 1013.6 0.0
26/11:00am 29.7 27.9 16.1 43 8.4 ENE 20 24 11 13 1014.0 1013.9 0.0
26/10:30am 29.2 28.8 18.0 51 7.1 E 17 20 9 11 1014.3 1014.2 0.0
26/10:00am 29.1 29.0 18.8 53 6.6 E 17 20 9 11 1014.4 1014.3 0.0
26/09:30am 29.0 29.7 19.6 57 6.1 E 15 19 8 10 1014.5 1014.4 0.0
26/09:00am 28.2 28.2 18.0 54 6.5 E 15 17 8 9 1014.6 1014.5 0.0
26/08:30am 28.5 29.0 18.3 54 6.5 ESE 13 15 7 8 1014.6 1014.5 0.0
26/08:00am 27.8 27.8 18.2 56 6.1 ESE 15 17 8 9 1014.6 1014.5 0.0
26/07:30am 27.1 27.1 18.1 58 5.7 SE 15 17 8 9 1014.5 1014.4 0.0
26/07:00am 26.5 26.2 19.1 64 4.8 SE 19 22 10 12 1014.3 1014.2 0.0
26/06:30am 25.9 25.6 19.1 66 4.4 SE 19 20 10 11 1013.9 1013.8 0.0
26/06:00am 24.9 24.5 20.2 75 3.1 SSE 22 26 12 14 1013.4 1013.3 0.0
26/05:30am 24.8 25.0 21.3 81 2.3 SSE 22 26 12 14 1013.1 1013.0 0.0
26/05:00am 25.2 25.7 21.9 82 2.2 SE 22 26 12 14 1013.0 1012.9 0.0
26/04:30am 25.1 24.9 19.7 72 3.5 SE 20 24 11 13 1012.6 1012.5 0.0
26/04:00am 25.5 25.9 20.7 75 3.1 SE 19 22 10 12 1012.3 1012.2 0.0
26/03:30am 25.3 26.3 20.3 74 3.3 ESE 15 19 8 10 1012.2 1012.1 0.0
26/03:00am 25.2 27.3 20.9 77 2.8 ESE 11 13 6 7 1012.3 1012.2 0.0
26/02:30am 24.6 28.0 20.1 76 2.9 NW 2 9 1 5 1012.3 1012.2 0.0
26/02:00am 24.5 28.0 19.6 74 3.2 CALM 0 0 0 0 1012.4 1012.3 0.0
26/01:30am 25.0 28.6 19.8 73 3.4 CALM 0 0 0 0 1012.5 1012.4 0.0
26/01:00am 25.1 28.7 19.7 72 3.5 CALM 0 0 0 0 1012.8 1012.7 0.0
26/12:30am 25.0 28.6 19.8 73 3.4 CALM 0 0 0 0 1013.2 1013.1 0.0
26/12:00am 25.0 27.9 19.8 73 3.4 NW 4 6 2 3 1013.4 1013.3 0.0
 
Date/Time
WST
Temp
°C
App
Temp
°C
Dew
Point
°C
Rel
Hum
%
Delta-T
°C
Wind Press
QNH
hPa
Press
MSL
hPa
Rain since
9am
mm
Dir  Spd
km/h
Gust
km/h
Spd
kts
Gust
kts
25/11:30pm 24.9 27.4 19.9 74 3.2 NW 6 7 3 4 1013.5 1013.4 0.0
25/11:00pm 24.7 26.8 19.3 72 3.5 N 7 7 4 4 1013.7 1013.6 0.0
25/10:30pm 24.6 26.9 19.4 73 3.3 N 6 7 3 4 1013.8 1013.7 0.0
25/10:00pm 25.2 28.4 19.8 72 3.5 N 2 6 1 3 1013.7 1013.6 0.0
25/09:30pm 25.8 28.0 19.2 67 4.2 NNE 6 6 3 3 1013.6 1013.5 0.0
25/09:00pm 25.8 28.0 19.7 69 3.9 NNE 7 7 4 4 1013.7 1013.6 0.0
25/08:30pm 25.8 27.5 18.5 64 4.6 NE 7 9 4 5 1013.6 1013.5 0.0
25/08:00pm 26.1 27.4 18.5 63 4.8 NE 9 11 5 6 1013.4 1013.3 0.0
25/07:30pm 26.3 27.6 18.4 61 5.0 NE 9 11 5 6 1013.1 1013.0 0.0
25/07:00pm 26.4 27.5 18.8 63 4.9 NE 11 13 6 7 1012.8 1012.7 0.0
25/06:30pm 26.6 28.0 18.7 62 5.0 NNE 9 11 5 6 1012.2 1012.1 0.0
25/06:00pm 26.7 27.6 18.3 60 5.3 N 11 15 6 8 1011.7 1011.6 0.0
25/05:30pm 26.9 27.0 17.4 56 6.0 N 13 15 7 8 1011.5 1011.4 0.0
25/05:00pm 27.4 27.3 17.0 53 6.5 N 13 17 7 9 1011.1 1011.0 0.0
25/04:30pm 28.0 27.0 15.6 46 7.6 N 15 19 8 10 1011.0 1010.9 0.0
25/04:00pm 28.4 27.7 15.3 45 8.0 N 13 17 7 9 1010.7 1010.6 0.0
25/03:30pm 28.8 28.4 15.3 43 8.3 NNW 11 15 6 8 1010.5 1010.4 0.0
25/03:00pm 28.9 28.1 16.1 46 7.9 NW 15 17 8 9 1010.6 1010.5 0.0
25/02:30pm 29.4 28.7 15.5 43 8.5 WNW 13 13 7 7 1010.7 1010.6 0.0
25/02:00pm 29.5 29.9 16.3 45 8.2 W 9 13 5 7 1010.7 1010.6 0.0
25/01:30pm 29.5 30.1 16.7 46 8.0 WSW 9 11 5 6 1011.1 1011.0 0.0
25/01:00pm 29.4 30.3 16.6 46 8.0 SW 7 9 4 5 1011.4 1011.3 0.0
25/12:30pm 29.2 29.6 16.4 46 8.0 WSW 9 13 5 7 1011.5 1011.4 0.0
25/12:00pm 28.4 28.8 16.3 47 7.5 WSW 9 13 5 7 1012.1 1012.0 0.0
25/11:30am 29.2 29.1 16.0 44 8.2 SW 11 13 6 7 1012.4 1012.3 0.0
25/11:00am 28.8 29.4 16.7 48 7.6 WSW 9 13 5 7 1012.8 1012.7 0.0
25/10:30am 28.5 28.6 16.4 48 7.5 W 11 13 6 7 1013.1 1013.0 0.0
25/10:00am 28.7 28.8 16.6 48 7.5 W 11 13 6 7 1013.4 1013.3 0.0
25/09:30am 29.2 29.4 16.7 46 7.8 WSW 11 13 6 7 1013.4 1013.3 0.0
25/09:00am 28.5 29.1 16.7 48 7.4 WSW 9 11 5 6 1013.2 1013.1 0.0
25/08:30am 27.9 28.6 17.1 51 6.8 WSW 9 11 5 6 1013.0 1012.9 0.0
25/08:00am 27.7 28.2 16.6 50 6.9 WSW 9 13 5 7 1012.8 1012.7 0.0
25/07:30am 27.3 27.4 16.6 52 6.6 WSW 11 13 6 7 1012.4 1012.3 0.0
25/07:00am 27.0 27.4 16.3 52 6.6 W 9 11 5 6 1012.2 1012.1 0.0
25/06:30am 25.8 27.6 15.5 53 6.2 CALM 0 0 0 0 1012.1 1012.0 0.0
25/06:00am 24.7 26.5 15.6 57 5.5 CALM 0 0 0 0 1011.7 1011.6 0.0
25/05:30am 24.7 25.5 15.9 58 5.3 SSE 6 7 3 4 1011.4 1011.3 0.0
25/05:00am 24.5 25.1 15.7 58 5.3 S 7 9 4 5 1011.0 1010.9 0.0
25/04:30am 24.1 24.2 15.6 59 5.1 SSE 9 11 5 6 1010.8 1010.7 0.0
25/04:00am 25.4 25.0 16.3 57 5.6 S 13 15 7 8 1010.5 1010.4 0.0
25/03:30am 25.0 25.4 15.3 55 5.8 SW 7 11 4 6 1010.4 1010.3 0.0
25/03:00am 25.5 25.6 16.4 57 5.6 SW 11 15 6 8 1010.4 1010.3 0.0
25/02:30am 25.7 25.2 16.0 55 5.9 SW 13 15 7 8 1010.4 1010.3 0.0
25/02:00am 25.7 25.1 15.7 54 6.1 SW 13 15 7 8 1010.5 1010.4 0.0
25/01:30am 25.2 25.6 16.4 58 5.4 WSW 9 11 5 6 1010.6 1010.5 0.0
25/01:00am 25.1 25.3 16.8 60 5.1 W 11 11 6 6 1010.6 1010.5 0.0
25/12:30am 24.4 24.5 16.6 61 4.8 WNW 11 11 6 6 1011.1 1011.0 0.0
25/12:00am 24.5 24.5 16.2 60 5.1 WNW 11 13 6 7 1011.1 1011.0 0.0
 
Date/Time
WST
Temp
°C
App
Temp
°C
Dew
Point
°C
Rel
Hum
%
Delta-T
°C
Wind Press
QNH
hPa
Press
MSL
hPa
Rain since
9am
mm
Dir  Spd
km/h
Gust
km/h
Spd
kts
Gust
kts
24/11:30pm 24.9 24.9 17.1 62 4.8 WNW 13 15 7 8 1011.1 1011.0 0.0
24/11:00pm 24.5 24.4 17.0 63 4.6 WNW 13 15 7 8 1011.1 1011.0 0.0
24/10:30pm 24.7 24.4 16.4 60 5.1 WNW 13 15 7 8 1011.3 1011.2 0.0
24/10:00pm 24.5 23.9 16.7 61 4.8 WNW 15 17 8 9 1011.4 1011.3 0.0
24/09:30pm 25.6 24.4 16.2 56 5.8 WNW 17 20 9 11 1011.4 1011.3 0.0
24/09:00pm 25.6 23.9 16.2 56 5.8 WNW 20 22 11 12 1011.3 1011.2 0.0
24/08:30pm 25.6 24.0 15.9 55 5.9 WNW 19 20 10 11 1011.4 1011.3 0.0
24/08:00pm 25.3 24.2 16.4 57 5.5 WNW 17 19 9 10 1011.5 1011.4 0.0
24/07:30pm 25.8 23.7 15.2 52 6.4 NW 20 22 11 12 1011.2 1011.1 0.0
24/07:00pm 26.0 23.6 14.5 49 6.9 NW 20 22 11 12 1010.8 1010.7 0.0
24/06:30pm 26.1 23.8 14.2 48 7.1 NW 19 22 10 12 1010.5 1010.4 0.0
24/06:00pm 26.4 23.7 13.5 45 7.6 NW 20 22 11 12 1010.4 1010.3 0.0
24/05:30pm 26.8 24.2 13.9 45 7.7 WNW 20 24 11 13 1010.0 1009.9 0.0
24/05:00pm 27.6 26.1 15.3 47 7.5 NW 17 20 9 11 1009.6 1009.5 0.0
24/04:30pm 28.1 26.4 14.7 44 8.1 WNW 17 19 9 10 1009.3 1009.2 0.0
24/04:00pm 28.2 26.5 13.7 41 8.6 NW 15 17 8 9 1009.2 1009.1 0.0
24/03:30pm 28.7 27.4 12.6 37 9.4 WNW 11 13 6 7 1008.9 1008.8 0.0
24/03:00pm 29.0 27.5 12.0 35 9.9 W 11 13 6 7 1008.8 1008.7 0.0
24/02:30pm 29.1 27.4 12.5 36 9.7 W 13 15 7 8 1009.1 1009.0 0.0
24/02:00pm 29.2 27.9 13.8 39 9.2 W 13 15 7 8 1009.4 1009.3 0.0
24/01:30pm 29.6 28.6 13.4 37 9.7 WNW 11 13 6 7 1009.7 1009.6 0.0
24/01:00pm 29.6 27.7 9.2 28 11.4 WNW 9 13 5 7 1009.9 1009.8 0.0
24/12:30pm 30.0 28.1 9.0 27 11.7 ENE 9 13 5 7 1010.2 1010.1 0.0
24/12:00pm 28.8 26.9 10.5 32 10.4 E 11 15 6 8 1010.6 1010.5 0.0
24/11:30am 29.4 28.3 13.2 37 9.6 E 11 13 6 7 1010.9 1010.8 0.0
24/11:00am 28.5 26.5 11.6 35 9.7 ESE 13 17 7 9 1011.4 1011.3 0.0

Other Formats:

Comma delimited format used in spreadsheet applications
http://www.bom.gov.au/fwo/IDW60801/IDW60801.94102.axf

JavaScript Object Notation format (JSON) in row-major order
http://www.bom.gov.au/fwo/IDW60801/IDW60801.94102.json